createdAt,value
2023-03-26T00:01:00.464Z,9.30
2023-03-26T00:03:27.844Z,11.23
2023-03-26T00:06:04.491Z,11.48
2023-03-26T00:08:31.020Z,10.07
2023-03-26T00:10:58.063Z,9.52
2023-03-26T00:13:25.291Z,11.57
2023-03-26T00:15:53.087Z,8.52
2023-03-26T00:18:24.958Z,8.40
2023-03-26T00:20:51.692Z,9.65
2023-03-26T00:23:18.199Z,9.35
2023-03-26T00:25:45.707Z,8.18
2023-03-26T00:28:12.345Z,10.80
2023-03-26T00:30:41.797Z,10.25
2023-03-26T00:33:08.356Z,10.88
2023-03-26T00:35:38.452Z,11.65
2023-03-26T00:38:04.910Z,10.55
2023-03-26T00:40:32.127Z,10.43
2023-03-26T00:42:58.534Z,10.65
2023-03-26T00:45:24.940Z,10.35
2023-03-26T00:47:51.682Z,8.55
2023-03-26T00:50:18.165Z,12.05
2023-03-26T00:52:46.197Z,9.55
2023-03-26T00:55:12.922Z,10.27
2023-03-26T00:57:40.605Z,12.65
2023-03-26T01:00:10.779Z,9.27
2023-03-26T01:02:37.649Z,11.48
2023-03-26T01:05:25.561Z,12.38
2023-03-26T01:07:52.093Z,9.43
2023-03-26T01:10:18.584Z,9.95
2023-03-26T01:12:45.073Z,9.23
2023-03-26T01:15:13.794Z,9.70
2023-03-26T01:17:43.146Z,12.80
2023-03-26T01:20:13.545Z,10.48
2023-03-26T01:22:42.455Z,9.57
2023-03-26T01:25:09.574Z,8.68
2023-03-26T01:27:39.185Z,10.80
2023-03-26T01:30:24.432Z,9.32
2023-03-26T01:33:14.306Z,9.60
2023-03-26T01:35:47.647Z,8.25
2023-03-26T01:38:29.207Z,9.07
2023-03-26T01:40:58.559Z,9.02
2023-03-26T01:43:31.115Z,8.85
2023-03-26T01:45:59.950Z,10.18
2023-03-26T01:48:31.243Z,7.50
2023-03-26T01:50:58.839Z,8.20
2023-03-26T01:53:26.010Z,9.18
2023-03-26T01:55:58.412Z,6.85
2023-03-26T01:58:32.308Z,6.88
2023-03-26T02:01:24.423Z,7.80
2023-03-26T02:03:53.340Z,9.43
2023-03-26T02:06:23.663Z,6.55
2023-03-26T02:08:59.273Z,7.63
2023-03-26T02:11:34.788Z,8.07
2023-03-26T02:14:03.229Z,8.20
2023-03-26T02:16:29.829Z,9.70
2023-03-26T02:18:56.321Z,7.38
2023-03-26T02:21:26.028Z,8.77
2023-03-26T02:24:03.735Z,7.63
2023-03-26T02:26:34.431Z,8.60
2023-03-26T02:29:07.319Z,9.88
2023-03-26T02:31:35.874Z,8.90
2023-03-26T02:34:02.552Z,8.10
2023-03-26T02:36:32.343Z,10.85
2023-03-26T02:39:01.878Z,8.07
2023-03-26T02:41:31.593Z,9.30
2023-03-26T02:44:01.874Z,8.95
2023-03-26T02:46:47.144Z,7.85
2023-03-26T02:49:32.151Z,9.45
2023-03-26T02:51:58.577Z,7.95
2023-03-26T02:54:26.539Z,8.77
2023-03-26T02:57:22.780Z,7.60
2023-03-26T03:00:14.080Z,8.73
2023-03-26T03:02:48.256Z,8.43
2023-03-26T03:05:31.493Z,8.23
2023-03-26T03:08:21.995Z,6.15
2023-03-26T03:11:22.179Z,7.18
2023-03-26T03:13:50.743Z,7.00
2023-03-26T03:16:23.231Z,7.38
2023-03-26T03:18:54.500Z,6.18
2023-03-26T03:21:22.558Z,8.30
2023-03-26T03:23:49.413Z,8.57
2023-03-26T03:26:17.510Z,6.78
2023-03-26T03:28:50.793Z,5.88
2023-03-26T03:31:17.746Z,7.30
2023-03-26T03:33:46.380Z,8.10
2023-03-26T03:36:20.107Z,6.60
2023-03-26T03:39:02.120Z,6.05
2023-03-26T03:41:29.416Z,7.43
2023-03-26T03:43:56.272Z,6.53
2023-03-26T03:46:27.738Z,6.07
2023-03-26T03:48:54.275Z,7.53
2023-03-26T03:51:25.897Z,6.28
2023-03-26T03:54:00.586Z,6.13
2023-03-26T03:56:42.290Z,6.97
2023-03-26T03:59:28.148Z,8.05
2023-03-26T04:01:54.647Z,6.47
2023-03-26T04:04:40.250Z,9.18
2023-03-26T04:07:10.613Z,6.32
2023-03-26T04:10:03.979Z,9.80
2023-03-26T04:12:50.471Z,7.18
2023-03-26T04:15:19.042Z,8.68
2023-03-26T04:17:47.753Z,5.57
2023-03-26T04:20:16.767Z,6.00
2023-03-26T04:22:46.697Z,7.55
2023-03-26T04:25:15.534Z,6.75
2023-03-26T04:27:58.375Z,8.05
2023-03-26T04:30:45.245Z,8.40
2023-03-26T04:33:33.482Z,7.07
2023-03-26T04:36:02.847Z,5.80
2023-03-26T04:38:33.755Z,6.85
2023-03-26T04:41:04.412Z,5.65
2023-03-26T04:44:06.910Z,4.80
2023-03-26T04:46:43.759Z,6.55
2023-03-26T04:49:19.729Z,6.15
2023-03-26T04:51:47.111Z,4.68
2023-03-26T04:54:31.944Z,6.35
2023-03-26T04:57:04.984Z,7.28
2023-03-26T04:59:45.333Z,5.45
2023-03-26T05:02:14.001Z,5.07
2023-03-26T05:04:52.476Z,6.70
2023-03-26T05:07:20.725Z,4.80
2023-03-26T05:09:50.299Z,6.10
2023-03-26T05:12:22.668Z,6.05
2023-03-26T05:15:18.431Z,7.28
2023-03-26T05:17:58.859Z,6.45
2023-03-26T05:20:30.242Z,7.22
2023-03-26T05:22:57.280Z,6.20
2023-03-26T05:25:32.502Z,16.13
2023-03-26T05:28:01.061Z,11.00
2023-03-26T05:30:35.678Z,9.60
2023-03-26T05:33:04.405Z,8.95
2023-03-26T05:35:39.947Z,7.30
2023-03-26T05:38:08.478Z,8.25
2023-03-26T05:40:34.894Z,9.15
2023-03-26T05:43:03.661Z,7.22
2023-03-26T05:45:47.379Z,11.75
2023-03-26T05:48:25.047Z,7.00
2023-03-26T05:50:53.199Z,7.18
2023-03-26T05:53:20.537Z,7.25
2023-03-26T05:55:50.382Z,6.70
2023-03-26T05:58:36.465Z,6.32
2023-03-26T06:01:22.681Z,6.45
2023-03-26T06:04:07.547Z,6.85
2023-03-26T06:06:39.295Z,8.38
2023-03-26T06:09:06.668Z,6.80
2023-03-26T06:11:33.243Z,7.38
2023-03-26T06:14:01.486Z,6.00
2023-03-26T06:16:28.622Z,5.78
2023-03-26T06:19:27.354Z,9.68
2023-03-26T06:22:12.359Z,8.27
2023-03-26T06:25:11.490Z,6.55
2023-03-26T06:27:50.808Z,7.80
2023-03-26T06:30:37.865Z,7.85
2023-03-26T06:33:24.503Z,6.53
2023-03-26T06:35:51.488Z,7.18
2023-03-26T06:38:18.046Z,8.45
2023-03-26T06:40:44.956Z,5.18
2023-03-26T06:43:39.019Z,7.70
2023-03-26T06:46:25.789Z,6.57
2023-03-26T06:48:52.311Z,6.95
2023-03-26T06:51:30.212Z,6.93
2023-03-26T06:54:15.404Z,8.48
2023-03-26T06:56:51.676Z,6.13
2023-03-26T06:59:56.156Z,5.15
2023-03-26T07:02:41.415Z,6.35
2023-03-26T07:05:26.621Z,6.72
2023-03-26T07:08:31.672Z,6.70
2023-03-26T07:11:19.485Z,5.72
2023-03-26T07:14:08.802Z,7.85
2023-03-26T07:17:01.220Z,6.60
2023-03-26T07:19:35.155Z,7.70
2023-03-26T07:22:01.980Z,6.47
2023-03-26T07:24:57.766Z,5.45
2023-03-26T07:27:38.596Z,8.15
2023-03-26T07:30:23.602Z,5.63
2023-03-26T07:33:24.401Z,8.30
2023-03-26T07:36:39.282Z,7.93
2023-03-26T07:39:34.835Z,7.78
2023-03-26T07:42:37.642Z,5.90
2023-03-26T07:45:38.024Z,7.97
2023-03-26T07:48:21.316Z,4.07
2023-03-26T07:51:00.191Z,5.38
2023-03-26T07:53:45.632Z,4.65
2023-03-26T07:56:21.415Z,6.65
2023-03-26T07:59:20.712Z,6.03
2023-03-26T08:02:14.399Z,6.20
2023-03-26T08:04:56.025Z,6.00
2023-03-26T08:07:52.827Z,5.57
2023-03-26T08:10:31.601Z,4.60
2023-03-26T08:13:26.857Z,7.45
2023-03-26T08:16:05.792Z,5.53
2023-03-26T08:18:39.132Z,4.85
2023-03-26T08:21:11.172Z,7.27
2023-03-26T08:23:56.396Z,7.25
2023-03-26T08:26:41.490Z,5.82
2023-03-26T08:29:11.158Z,5.93
2023-03-26T08:31:39.450Z,6.65
2023-03-26T08:34:06.174Z,6.70
2023-03-26T08:36:32.602Z,7.75
2023-03-26T08:38:59.604Z,6.15
2023-03-26T08:41:36.992Z,8.50
2023-03-26T08:44:09.739Z,5.13
2023-03-26T08:46:36.428Z,8.02
2023-03-26T08:49:15.877Z,5.80
2023-03-26T08:51:57.453Z,6.43
2023-03-26T08:54:41.265Z,4.43
2023-03-26T08:57:31.132Z,7.05
2023-03-26T09:00:20.566Z,4.80
2023-03-26T09:02:52.878Z,5.35
2023-03-26T09:05:22.127Z,6.00
2023-03-26T09:08:03.579Z,5.95
2023-03-26T09:10:48.616Z,4.75
2023-03-26T09:13:21.243Z,5.35
2023-03-26T09:15:53.821Z,5.47
2023-03-26T09:18:38.899Z,7.73
2023-03-26T09:21:08.196Z,5.85
2023-03-26T09:23:57.619Z,7.60
2023-03-26T09:26:30.011Z,6.85
2023-03-26T09:29:11.635Z,4.55
2023-03-26T09:31:57.747Z,5.93
2023-03-26T09:34:27.235Z,5.10
2023-03-26T09:37:11.680Z,4.93
2023-03-26T09:39:56.601Z,7.82
2023-03-26T09:42:23.150Z,7.78
2023-03-26T09:45:00.831Z,3.90
2023-03-26T09:47:34.839Z,6.30
2023-03-26T09:50:01.326Z,4.80
2023-03-26T09:52:39.862Z,5.50
2023-03-26T09:55:15.885Z,9.65
2023-03-26T09:57:58.450Z,6.53
2023-03-26T10:00:25.450Z,8.27
2023-03-26T10:03:07.409Z,7.70
2023-03-26T10:05:44.551Z,11.93
2023-03-26T10:08:20.268Z,9.82
2023-03-26T10:10:46.735Z,9.13
2023-03-26T10:13:23.419Z,8.95
2023-03-26T10:15:52.958Z,11.57
2023-03-26T10:18:31.608Z,9.00
2023-03-26T10:21:13.305Z,8.15
2023-03-26T10:23:42.752Z,7.20
2023-03-26T10:26:24.670Z,8.88
2023-03-26T10:28:58.431Z,8.55
2023-03-26T10:31:41.009Z,8.43
2023-03-26T10:34:28.611Z,8.77
2023-03-26T10:37:00.943Z,6.90
2023-03-26T10:39:41.666Z,6.00
2023-03-26T10:42:11.701Z,6.10
2023-03-26T10:44:40.304Z,7.90
2023-03-26T10:47:14.509Z,5.38
2023-03-26T10:49:43.749Z,15.68
2023-03-26T10:52:13.025Z,5.85
2023-03-26T10:54:48.672Z,6.35
2023-03-26T10:57:38.161Z,4.90
2023-03-26T11:00:25.307Z,5.95
2023-03-26T11:02:51.965Z,3.72
2023-03-26T11:05:37.047Z,5.60
2023-03-26T11:08:16.415Z,4.72
2023-03-26T11:10:45.980Z,6.97
2023-03-26T11:13:16.178Z,4.03
2023-03-26T11:15:46.744Z,5.30
2023-03-26T11:18:35.355Z,5.18
2023-03-26T11:21:19.125Z,4.70
2023-03-26T11:24:05.122Z,4.05
2023-03-26T11:26:52.861Z,7.43
2023-03-26T11:29:32.590Z,5.65
2023-03-26T11:32:09.129Z,4.88
2023-03-26T11:34:38.372Z,5.65
2023-03-26T11:37:06.896Z,7.05
2023-03-26T11:39:38.800Z,4.97
2023-03-26T11:42:14.408Z,5.17
2023-03-26T11:44:53.261Z,4.55
2023-03-26T11:47:21.643Z,4.63
2023-03-26T11:49:50.131Z,6.07
2023-03-26T11:52:16.854Z,8.05
2023-03-26T11:54:50.459Z,6.75
2023-03-26T11:57:22.930Z,6.28
2023-03-26T11:59:57.100Z,4.87
2023-03-26T12:02:26.213Z,6.63
2023-03-26T12:04:56.383Z,5.15
2023-03-26T12:07:31.797Z,5.95
2023-03-26T12:10:18.126Z,5.05
2023-03-26T12:12:47.013Z,9.13
2023-03-26T12:15:19.003Z,11.70
2023-03-26T12:17:46.488Z,6.22
2023-03-26T12:20:26.775Z,7.95
2023-03-26T12:23:00.488Z,6.90
2023-03-26T12:25:31.402Z,7.63
2023-03-26T12:28:13.747Z,4.70
2023-03-26T12:30:41.258Z,8.68
2023-03-26T12:33:19.652Z,4.70
2023-03-26T12:35:46.223Z,17.33
2023-03-26T12:38:19.201Z,8.73
2023-03-26T12:40:45.843Z,34.35
2023-03-26T12:44:46.872Z,8.50
2023-03-26T12:48:00.249Z,7.20
2023-03-26T12:49:13.052Z,6.70
2023-03-26T12:51:52.453Z,9.63
2023-03-26T12:54:27.079Z,4.40
2023-03-26T12:57:26.475Z,5.45
2023-03-26T12:59:52.925Z,5.07
2023-03-26T13:02:32.716Z,5.95
2023-03-26T13:05:13.248Z,4.93
2023-03-26T13:07:53.293Z,5.57
2023-03-26T13:10:39.619Z,4.90
2023-03-26T13:13:09.921Z,5.57
2023-03-26T13:15:38.585Z,5.97
2023-03-26T13:18:08.373Z,6.60
2023-03-26T13:20:55.819Z,4.75
2023-03-26T13:23:40.850Z,7.82
2023-03-26T13:26:10.086Z,5.55
2023-03-26T13:28:44.274Z,6.78
2023-03-26T13:31:16.846Z,6.30
2023-03-26T13:33:57.514Z,11.43
2023-03-26T13:36:27.204Z,4.65
2023-03-26T13:38:58.906Z,5.18
2023-03-26T13:41:33.778Z,4.75
2023-03-26T13:44:00.609Z,7.05
2023-03-26T13:46:32.248Z,5.78
2023-03-26T13:49:09.401Z,3.60
2023-03-26T13:51:47.708Z,8.15
2023-03-26T13:54:14.187Z,4.22
2023-03-26T13:56:43.476Z,4.68
2023-03-26T13:59:16.847Z,7.15
2023-03-26T14:01:53.470Z,4.80
2023-03-26T14:04:21.342Z,7.03
2023-03-26T14:07:03.787Z,5.07
2023-03-26T14:09:31.875Z,5.97
2023-03-26T14:11:58.506Z,4.43
2023-03-26T14:14:49.077Z,4.57
2023-03-26T14:17:47.373Z,6.43
2023-03-26T14:20:32.298Z,7.75
2023-03-26T14:23:16.411Z,5.85
2023-03-26T14:25:57.599Z,4.38
2023-03-26T14:28:26.622Z,5.93
2023-03-26T14:31:03.718Z,6.47
2023-03-26T14:33:36.131Z,8.25
2023-03-26T14:36:21.141Z,4.63
2023-03-26T14:39:06.547Z,4.15
2023-03-26T14:41:47.995Z,4.82
2023-03-26T14:44:25.840Z,5.55
2023-03-26T14:47:07.460Z,4.03
2023-03-26T14:49:54.634Z,7.65
2023-03-26T14:52:29.243Z,4.18
2023-03-26T14:54:57.572Z,4.32
2023-03-26T14:57:38.484Z,4.25
2023-03-26T15:00:24.053Z,6.50
2023-03-26T15:03:07.572Z,4.45
2023-03-26T15:05:53.091Z,5.65
2023-03-26T15:08:19.667Z,5.93
2023-03-26T15:11:04.332Z,5.25
2023-03-26T15:13:53.433Z,6.72
2023-03-26T15:16:38.819Z,5.28
2023-03-26T15:19:11.016Z,6.70
2023-03-26T15:21:58.064Z,4.90
2023-03-26T15:24:27.463Z,3.83
2023-03-26T15:27:12.570Z,4.60
2023-03-26T15:30:11.619Z,6.20
2023-03-26T15:32:49.490Z,7.18
2023-03-26T15:35:15.954Z,4.20
2023-03-26T15:37:45.126Z,12.30
2023-03-26T15:40:12.987Z,4.80
2023-03-26T15:42:42.458Z,4.35
2023-03-26T15:45:14.850Z,5.32
2023-03-26T15:47:52.480Z,9.32
2023-03-26T15:50:31.147Z,6.30
2023-03-26T15:53:18.701Z,4.45
2023-03-26T15:55:54.272Z,6.13
2023-03-26T15:58:20.994Z,4.32
2023-03-26T16:00:55.207Z,5.38
2023-03-26T16:03:30.851Z,4.18
2023-03-26T16:06:09.801Z,4.63
2023-03-26T16:08:41.548Z,6.07
2023-03-26T16:11:12.546Z,5.18
2023-03-26T16:13:43.591Z,10.82
2023-03-26T16:16:16.173Z,11.50
2023-03-26T16:18:42.597Z,10.67
2023-03-26T16:21:31.151Z,9.45
2023-03-26T16:24:02.266Z,8.80
2023-03-26T16:26:39.752Z,5.72
2023-03-26T16:29:34.228Z,5.47
2023-03-26T16:32:09.610Z,5.15
2023-03-26T16:34:39.304Z,8.98
2023-03-26T16:37:25.959Z,6.30
2023-03-26T16:39:52.670Z,7.72
2023-03-26T16:42:30.229Z,4.00
2023-03-26T16:45:04.733Z,5.60
2023-03-26T16:47:32.316Z,6.13
2023-03-26T16:50:19.116Z,5.75
2023-03-26T16:53:08.525Z,3.95
2023-03-26T16:55:50.893Z,5.68
2023-03-26T16:58:23.472Z,5.07
2023-03-26T17:00:54.976Z,6.65
2023-03-26T17:03:33.914Z,6.47
2023-03-26T17:06:04.420Z,6.45
2023-03-26T17:08:36.396Z,6.43
2023-03-26T17:11:17.096Z,5.85
2023-03-26T17:14:00.966Z,7.70
2023-03-26T17:16:32.080Z,7.22
2023-03-26T17:19:04.200Z,8.10
2023-03-26T17:21:49.917Z,7.05
2023-03-26T17:24:35.645Z,7.32
2023-03-26T17:27:24.955Z,8.02
2023-03-26T17:29:59.369Z,6.05
2023-03-26T17:32:47.155Z,6.72
2023-03-26T17:35:15.402Z,7.57
2023-03-26T17:37:47.967Z,11.82
2023-03-26T17:40:30.581Z,5.17
2023-03-26T17:43:00.733Z,7.20
2023-03-26T17:47:58.749Z,5.47
2023-03-26T17:50:41.141Z,6.95
2023-03-26T17:53:15.270Z,7.80
2023-03-26T17:55:43.624Z,7.20
2023-03-26T17:58:36.519Z,7.97
2023-03-26T18:01:05.946Z,9.80
2023-03-26T18:03:35.797Z,11.65
2023-03-26T18:06:10.957Z,11.98
2023-03-26T18:08:43.518Z,10.30
2023-03-26T18:11:18.252Z,9.50
2023-03-26T18:14:20.300Z,10.88
2023-03-26T18:16:51.465Z,14.75
2023-03-26T18:19:19.453Z,14.93
2023-03-26T18:21:50.427Z,13.70
2023-03-26T18:24:22.566Z,12.02
2023-03-26T18:26:51.978Z,14.20
2023-03-26T18:29:26.433Z,16.30
2023-03-26T18:31:54.988Z,12.50
2023-03-26T18:34:21.775Z,15.45
2023-03-26T18:37:01.025Z,17.88
2023-03-26T18:39:27.956Z,15.60
2023-03-26T18:41:54.614Z,13.77
2023-03-26T18:44:21.417Z,13.02
2023-03-26T18:46:47.906Z,11.35
2023-03-26T18:49:15.469Z,15.52
2023-03-26T18:51:54.150Z,12.63
2023-03-26T18:54:23.853Z,12.65
2023-03-26T18:56:52.162Z,15.13
2023-03-26T18:59:32.125Z,11.32
2023-03-26T19:01:59.854Z,15.02
2023-03-26T19:04:27.116Z,11.63
2023-03-26T19:06:54.807Z,13.55
2023-03-26T19:09:31.739Z,13.02
2023-03-26T19:12:04.609Z,11.98
2023-03-26T19:14:35.299Z,15.55
2023-03-26T19:17:03.498Z,14.93
2023-03-26T19:19:32.283Z,15.23
2023-03-26T19:21:59.703Z,20.08
2023-03-26T19:24:27.013Z,17.33
2023-03-26T19:26:53.438Z,20.83
2023-03-26T19:29:30.538Z,29.50
2023-03-26T19:32:04.785Z,29.92
2023-03-26T19:34:35.375Z,29.17
2023-03-26T19:37:16.377Z,31.55
2023-03-26T19:39:44.212Z,30.70
2023-03-26T19:42:43.448Z,31.27
2023-03-26T19:45:21.827Z,28.95
2023-03-26T19:48:00.066Z,26.50
2023-03-26T19:50:35.357Z,27.55
2023-03-26T19:53:15.984Z,26.20
2023-03-26T19:55:51.918Z,30.77
2023-03-26T19:58:19.679Z,26.48
2023-03-26T20:00:46.163Z,27.58
2023-03-26T20:03:12.676Z,24.98
2023-03-26T20:05:39.201Z,24.60
2023-03-26T20:08:13.516Z,23.40
2023-03-26T20:10:40.105Z,24.23
2023-03-26T20:13:24.432Z,25.70
2023-03-26T20:18:43.924Z,26.80
2023-03-26T20:21:13.954Z,28.25
2023-03-26T20:23:41.080Z,29.88
2023-03-26T20:26:11.114Z,31.15
2023-03-26T20:28:47.296Z,29.73
2023-03-26T20:31:16.891Z,31.08
2023-03-26T20:33:43.379Z,30.55
2023-03-26T20:36:11.523Z,34.38
2023-03-26T20:38:39.740Z,33.70
2023-03-26T20:41:07.291Z,31.60
2023-03-26T20:43:33.685Z,35.38
2023-03-26T20:46:00.684Z,33.65
2023-03-26T20:48:27.159Z,32.33
2023-03-26T20:50:54.123Z,31.65
2023-03-26T20:53:20.621Z,32.47
2023-03-26T20:55:47.439Z,29.52
2023-03-26T20:58:15.417Z,31.60
2023-03-26T21:00:44.891Z,30.20
2023-03-26T21:03:12.697Z,28.17
2023-03-26T21:05:40.775Z,25.67
2023-03-26T21:08:07.581Z,27.10
2023-03-26T21:10:36.720Z,23.20
2023-03-26T21:13:08.270Z,24.60
2023-03-26T21:15:34.955Z,26.55
2023-03-26T21:18:01.761Z,22.92
2023-03-26T21:20:28.452Z,25.92
2023-03-26T21:23:07.936Z,25.48
2023-03-26T21:25:48.290Z,27.30
2023-03-26T21:28:22.186Z,29.67
2023-03-26T21:30:52.658Z,27.85
2023-03-26T21:33:19.877Z,28.13
2023-03-26T21:35:52.705Z,29.20
2023-03-26T21:38:22.889Z,24.58
2023-03-26T21:43:19.763Z,26.23
2023-03-26T21:45:48.619Z,24.77
2023-03-26T21:48:16.122Z,26.23
2023-03-26T21:50:43.148Z,24.20
2023-03-26T21:53:16.680Z,28.27
2023-03-26T21:58:12.717Z,27.50
2023-03-26T22:00:47.742Z,32.30
2023-03-26T22:03:17.314Z,26.63
2023-03-26T22:05:49.161Z,27.88
2023-03-26T22:08:27.250Z,27.80
2023-03-26T22:10:53.882Z,31.30
2023-03-26T22:13:20.508Z,34.10
2023-03-26T22:15:47.084Z,31.30
2023-03-26T22:18:14.299Z,32.20
2023-03-26T22:20:42.672Z,36.75
2023-03-26T22:23:09.391Z,32.97
2023-03-26T22:25:35.982Z,29.08
2023-03-26T22:28:02.388Z,30.83
2023-03-26T22:30:28.811Z,24.77
2023-03-26T22:32:55.834Z,27.27
2023-03-26T22:35:22.335Z,30.35
2023-03-26T22:37:48.940Z,26.65
2023-03-26T22:40:16.118Z,27.60
2023-03-26T22:42:42.541Z,25.80
2023-03-26T22:45:09.477Z,25.33
2023-03-26T22:47:36.011Z,23.35
2023-03-26T22:50:03.680Z,25.92
2023-03-26T22:52:30.410Z,25.88
2023-03-26T22:54:57.288Z,25.05
2023-03-26T22:57:24.084Z,23.35
2023-03-26T22:59:50.783Z,23.60
2023-03-26T23:02:17.622Z,26.75
2023-03-26T23:04:44.253Z,30.52
2023-03-26T23:07:10.827Z,28.08
2023-03-26T23:09:37.362Z,26.48
2023-03-26T23:12:03.979Z,27.67
2023-03-26T23:14:34.923Z,28.27
2023-03-26T23:17:01.545Z,26.92
2023-03-26T23:19:30.133Z,30.38
2023-03-26T23:21:57.330Z,29.88
2023-03-26T23:24:26.377Z,24.25
2023-03-26T23:26:53.265Z,28.23
2023-03-26T23:29:19.793Z,27.77
2023-03-26T23:31:46.241Z,25.70
2023-03-26T23:34:13.610Z,24.13
2023-03-26T23:36:40.900Z,24.20
2023-03-26T23:39:09.250Z,25.65
2023-03-26T23:41:36.720Z,23.15
2023-03-26T23:44:03.666Z,24.35
2023-03-26T23:46:30.338Z,25.77
2023-03-26T23:48:59.991Z,25.88
2023-03-26T23:51:26.813Z,28.00
2023-03-26T23:53:53.734Z,24.67
2023-03-26T23:56:20.250Z,25.00
2023-03-26T23:58:47.699Z,26.63
